createdAt,value
2019-03-01T00:01:44.719Z,5.73
2019-03-01T00:04:26.368Z,5.40
2019-03-01T00:07:32.549Z,5.93
2019-03-01T00:10:05.091Z,5.27
2019-03-01T00:12:58.711Z,5.83
2019-03-01T00:15:34.205Z,6.30
2019-03-01T00:18:33.495Z,5.87
2019-03-01T00:21:14.728Z,6.67
2019-03-01T00:23:54.047Z,6.70
2019-03-01T00:26:50.758Z,6.77
2019-03-01T00:29:50.246Z,7.47
2019-03-01T00:32:34.329Z,6.37
2019-03-01T00:35:22.213Z,7.07
2019-03-01T00:38:06.671Z,7.83
2019-03-01T00:40:39.099Z,7.07
2019-03-01T00:43:29.129Z,6.93
2019-03-01T00:45:58.472Z,8.60
2019-03-01T00:48:28.309Z,8.93
2019-03-01T00:50:57.873Z,8.87
2019-03-01T00:53:27.285Z,8.10
2019-03-01T00:55:57.025Z,7.87
2019-03-01T00:58:26.405Z,7.73
2019-03-01T01:00:55.865Z,8.40
2019-03-01T01:03:25.565Z,7.47
2019-03-01T01:05:55.015Z,7.80
2019-03-01T01:08:25.323Z,8.60
2019-03-01T01:10:54.977Z,8.00
2019-03-01T01:13:24.782Z,8.13
2019-03-01T01:15:54.133Z,9.53
2019-03-01T01:18:23.484Z,7.47
2019-03-01T01:20:52.878Z,7.73
2019-03-01T01:23:22.569Z,7.47
2019-03-01T01:25:51.960Z,8.57
2019-03-01T01:28:21.398Z,10.63
2019-03-01T01:30:50.748Z,8.93
2019-03-01T01:33:20.180Z,9.77
2019-03-01T01:35:49.636Z,9.70
2019-03-01T01:38:19.058Z,8.47
2019-03-01T01:40:49.506Z,8.80
2019-03-01T01:43:18.890Z,9.23
2019-03-01T01:45:48.580Z,8.57
2019-03-01T01:48:17.985Z,8.07
2019-03-01T01:50:47.467Z,7.53
2019-03-01T01:53:16.826Z,8.80
2019-03-01T01:55:46.201Z,8.17
2019-03-01T01:58:15.566Z,9.40
2019-03-01T02:00:45.071Z,8.93
2019-03-01T02:03:14.531Z,7.50
2019-03-01T02:05:44.089Z,8.80
2019-03-01T02:08:13.621Z,8.37
2019-03-01T02:10:43.079Z,9.23
2019-03-01T02:13:12.508Z,10.30
2019-03-01T02:15:41.934Z,8.27
2019-03-01T02:18:11.489Z,8.97
2019-03-01T02:20:40.846Z,9.27
2019-03-01T02:23:10.215Z,8.70
2019-03-01T02:25:39.605Z,8.57
2019-03-01T02:28:09.016Z,8.13
2019-03-01T02:30:41.349Z,7.93
2019-03-01T02:33:10.767Z,9.13
2019-03-01T02:35:40.129Z,9.23
2019-03-01T02:38:09.586Z,9.33
2019-03-01T02:40:39.003Z,10.53
2019-03-01T02:43:08.446Z,9.20
2019-03-01T02:45:38.111Z,8.77
2019-03-01T02:48:07.589Z,9.47
2019-03-01T02:50:37.001Z,10.13
2019-03-01T02:53:06.524Z,9.73
2019-03-01T02:55:35.916Z,9.80
2019-03-01T02:58:05.352Z,10.57
2019-03-01T03:00:34.779Z,10.63
2019-03-01T03:03:04.316Z,9.90
2019-03-01T03:05:35.703Z,11.20
2019-03-01T03:08:06.884Z,10.07
2019-03-01T03:10:36.363Z,10.90
2019-03-01T03:13:07.336Z,10.40
2019-03-01T03:15:38.514Z,10.53
2019-03-01T03:18:07.945Z,10.67
2019-03-01T03:20:37.324Z,10.83
2019-03-01T03:23:06.947Z,12.23
2019-03-01T03:25:36.378Z,12.30
2019-03-01T03:28:05.887Z,12.63
2019-03-01T03:30:35.526Z,12.50
2019-03-01T03:33:04.949Z,12.80
2019-03-01T03:35:34.453Z,14.93
2019-03-01T03:38:03.890Z,16.03
2019-03-01T03:40:33.315Z,16.80
2019-03-01T03:43:03.171Z,16.50
2019-03-01T03:45:32.559Z,19.87
2019-03-01T03:48:02.012Z,19.40
2019-03-01T03:50:31.517Z,24.20
2019-03-01T03:53:01.273Z,29.17
2019-03-01T03:55:30.802Z,33.70
2019-03-01T03:58:00.165Z,34.93
2019-03-01T04:00:29.573Z,39.13
2019-03-01T04:02:58.930Z,41.47
2019-03-01T04:05:28.379Z,42.60
2019-03-01T04:07:57.841Z,44.60
2019-03-01T04:10:27.219Z,46.80
2019-03-01T04:12:56.660Z,49.67
2019-03-01T04:15:26.203Z,48.87
2019-03-01T04:17:55.689Z,50.60
2019-03-01T04:20:26.163Z,52.47
2019-03-01T04:22:55.595Z,54.77
2019-03-01T04:25:24.966Z,54.70
2019-03-01T04:27:54.364Z,54.73
2019-03-01T04:30:23.860Z,58.93
2019-03-01T04:32:53.294Z,57.23
2019-03-01T04:35:22.755Z,62.13
2019-03-01T04:37:52.379Z,61.47
2019-03-01T04:40:21.846Z,68.87
2019-03-01T04:42:51.251Z,67.33
2019-03-01T04:45:20.607Z,73.23
2019-03-01T04:47:49.976Z,77.17
2019-03-01T04:50:19.434Z,79.50
2019-03-01T04:52:48.861Z,80.30
2019-03-01T04:55:26.074Z,83.73
2019-03-01T04:57:55.499Z,85.17
2019-03-01T05:00:25.708Z,86.47
2019-03-01T05:02:55.111Z,89.67
2019-03-01T05:05:24.862Z,85.77
2019-03-01T05:07:54.229Z,88.90
2019-03-01T05:10:23.709Z,87.63
2019-03-01T05:12:53.081Z,88.63
2019-03-01T05:15:24.159Z,86.77
2019-03-01T05:17:54.898Z,86.20
2019-03-01T05:20:24.397Z,81.00
2019-03-01T05:22:53.765Z,80.90
2019-03-01T05:25:23.301Z,75.47
2019-03-01T05:27:52.718Z,77.47
2019-03-01T05:30:22.240Z,76.03
2019-03-01T05:32:51.734Z,72.57
2019-03-01T05:35:21.164Z,73.07
2019-03-01T05:37:50.539Z,70.53
2019-03-01T05:40:21.078Z,72.07
2019-03-01T05:42:50.465Z,70.37
2019-03-01T05:45:27.947Z,72.03
2019-03-01T05:47:57.434Z,69.90
2019-03-01T05:50:26.866Z,71.80
2019-03-01T05:52:56.487Z,69.93
2019-03-01T05:55:25.907Z,69.73
2019-03-01T05:58:21.273Z,70.07
2019-03-01T06:00:52.142Z,66.53
2019-03-01T06:03:48.680Z,69.57
2019-03-01T06:06:21.142Z,71.23
2019-03-01T06:08:59.341Z,67.73
2019-03-01T06:11:40.815Z,72.77
2019-03-01T06:14:46.766Z,67.63
2019-03-01T06:17:25.013Z,59.53
2019-03-01T06:19:57.513Z,54.17
2019-03-01T06:22:32.791Z,52.80
2019-03-01T06:25:13.928Z,49.87
2019-03-01T06:27:46.369Z,47.03
2019-03-01T06:30:51.457Z,48.57
2019-03-01T06:33:35.185Z,46.97
2019-03-01T06:36:32.027Z,45.67
2019-03-01T06:39:18.046Z,47.77
2019-03-01T06:41:50.875Z,41.27
2019-03-01T06:44:57.053Z,44.23
2019-03-01T06:47:44.544Z,42.47
2019-03-01T06:50:21.437Z,43.47
2019-03-01T06:52:50.973Z,41.90
2019-03-01T06:55:30.135Z,40.37
2019-03-01T06:57:59.539Z,39.93
2019-03-01T07:00:30.550Z,40.30
2019-03-01T07:03:01.195Z,40.93
2019-03-01T07:05:30.548Z,38.57
2019-03-01T07:07:59.919Z,39.93
2019-03-01T07:10:29.317Z,38.37
2019-03-01T07:12:58.718Z,40.17
2019-03-01T07:15:28.515Z,40.83
2019-03-01T07:17:57.894Z,41.07
2019-03-01T07:20:27.265Z,40.10
2019-03-01T07:22:56.697Z,40.93
2019-03-01T07:25:26.180Z,41.83
2019-03-01T07:27:56.536Z,44.17
2019-03-01T07:30:25.923Z,39.40
2019-03-01T07:32:55.609Z,43.80
2019-03-01T07:35:25.132Z,42.73
2019-03-01T07:37:54.760Z,41.17
2019-03-01T07:40:24.187Z,42.20
2019-03-01T07:42:53.980Z,40.97
2019-03-01T07:45:24.386Z,41.90
2019-03-01T07:47:53.831Z,44.73
2019-03-01T07:50:23.179Z,40.97
2019-03-01T07:52:52.600Z,41.10
2019-03-01T07:55:25.038Z,40.17
2019-03-01T07:57:53.333Z,40.47
2019-03-01T08:00:22.806Z,40.30
2019-03-01T08:02:52.353Z,40.57
2019-03-01T08:05:21.850Z,40.43
2019-03-01T08:07:56.122Z,41.70
2019-03-01T08:10:23.110Z,39.63
2019-03-01T08:12:54.176Z,40.37
2019-03-01T08:15:24.057Z,36.20
2019-03-01T08:17:53.435Z,37.80
2019-03-01T08:20:22.963Z,39.33
2019-03-01T08:22:52.693Z,38.30
2019-03-01T08:25:23.379Z,37.57
2019-03-01T08:27:53.259Z,35.97
2019-03-01T08:30:22.741Z,35.10
2019-03-01T08:32:52.159Z,35.97
2019-03-01T08:35:21.678Z,34.07
2019-03-01T08:37:53.366Z,34.47
2019-03-01T08:40:22.213Z,34.83
2019-03-01T08:42:52.638Z,34.63
2019-03-01T08:45:22.168Z,32.30
2019-03-01T08:47:51.682Z,35.67
2019-03-01T08:50:21.216Z,33.00
2019-03-01T08:52:50.937Z,33.30
2019-03-01T08:55:26.508Z,33.73
2019-03-01T08:57:59.718Z,33.03
2019-03-01T09:00:36.223Z,35.60
2019-03-01T09:03:11.322Z,33.73
2019-03-01T09:05:40.970Z,32.73
2019-03-01T09:08:10.430Z,32.03
2019-03-01T09:10:39.858Z,32.03
2019-03-01T09:13:09.285Z,33.60
2019-03-01T09:15:38.847Z,35.17
2019-03-01T09:18:11.444Z,35.63
2019-03-01T09:20:39.481Z,35.60
2019-03-01T09:23:22.579Z,34.30
2019-03-01T09:25:41.419Z,34.87
2019-03-01T09:28:12.095Z,34.13
2019-03-01T09:30:43.527Z,32.77
2019-03-01T09:33:12.581Z,33.30
2019-03-01T09:35:52.313Z,33.73
2019-03-01T09:38:21.760Z,30.23
2019-03-01T09:40:51.216Z,32.20
2019-03-01T09:43:21.030Z,32.57
2019-03-01T09:45:50.481Z,34.77
2019-03-01T09:48:19.892Z,31.40
2019-03-01T09:50:49.391Z,29.17
2019-03-01T09:53:18.811Z,29.40
2019-03-01T09:55:48.199Z,27.70
2019-03-01T09:58:17.553Z,26.80
2019-03-01T10:00:56.142Z,27.90
2019-03-01T10:03:21.146Z,27.17
2019-03-01T10:05:50.557Z,29.43
2019-03-01T10:08:19.992Z,30.13
2019-03-01T10:10:49.383Z,30.20
2019-03-01T10:13:18.884Z,29.07
2019-03-01T10:15:48.315Z,35.67
2019-03-01T10:18:17.801Z,36.83
2019-03-01T10:20:47.283Z,41.83
2019-03-01T10:23:16.750Z,50.67
2019-03-01T10:25:46.512Z,67.27
2019-03-01T10:28:16.061Z,74.10
2019-03-01T10:30:48.344Z,71.40
2019-03-01T10:33:17.842Z,70.47
2019-03-01T10:35:47.521Z,66.50
2019-03-01T10:38:16.987Z,64.50
2019-03-01T10:40:46.876Z,66.60
2019-03-01T10:43:16.313Z,69.43
2019-03-01T10:45:45.787Z,65.43
2019-03-01T10:48:15.225Z,70.37
2019-03-01T10:50:44.678Z,69.33
2019-03-01T10:53:19.262Z,61.03
2019-03-01T10:55:49.780Z,56.50
2019-03-01T10:58:19.741Z,53.13
2019-03-01T11:00:51.951Z,45.00
2019-03-01T11:03:21.549Z,39.43
2019-03-01T11:05:53.092Z,26.10
2019-03-01T11:08:24.196Z,22.10
2019-03-01T11:10:53.979Z,21.17
2019-03-01T11:13:23.470Z,22.17
2019-03-01T11:15:57.016Z,19.07
2019-03-01T11:18:26.672Z,18.13
2019-03-01T11:20:56.620Z,19.23
2019-03-01T11:23:26.142Z,18.00
2019-03-01T11:25:55.626Z,15.03
2019-03-01T11:28:25.078Z,16.10
2019-03-01T11:30:54.490Z,14.43
2019-03-01T11:33:24.042Z,14.73
2019-03-01T11:35:54.022Z,13.33
2019-03-01T11:38:23.558Z,15.27
2019-03-01T11:40:53.577Z,16.23
2019-03-01T11:43:23.759Z,16.10
2019-03-01T11:45:53.381Z,13.80
2019-03-01T11:48:22.917Z,13.10
2019-03-01T11:50:52.500Z,12.37
2019-03-01T11:53:21.982Z,10.87
2019-03-01T11:55:51.410Z,11.83
2019-03-01T11:58:21.006Z,11.70
2019-03-01T12:00:52.200Z,11.70
2019-03-01T12:03:21.800Z,12.47
2019-03-01T12:05:53.549Z,12.47
2019-03-01T12:08:22.977Z,13.07
2019-03-01T12:10:52.543Z,14.53
2019-03-01T12:13:23.132Z,14.27
2019-03-01T12:15:52.719Z,13.50
2019-03-01T12:18:22.251Z,16.40
2019-03-01T12:20:51.727Z,16.07
2019-03-01T12:23:21.204Z,14.80
2019-03-01T12:25:50.591Z,12.83
2019-03-01T12:28:20.064Z,11.80
2019-03-01T12:30:50.075Z,18.33
2019-03-01T12:33:19.618Z,17.10
2019-03-01T12:35:53.071Z,20.60
2019-03-01T12:38:22.635Z,19.13
2019-03-01T12:40:52.149Z,19.30
2019-03-01T12:43:21.529Z,16.37
2019-03-01T12:45:51.793Z,15.67
2019-03-01T12:48:21.233Z,16.03
2019-03-01T12:50:50.604Z,14.83
2019-03-01T12:53:20.185Z,15.20
2019-03-01T12:55:49.632Z,15.63
2019-03-01T12:58:19.770Z,16.77
2019-03-01T13:00:50.534Z,17.73
2019-03-01T13:03:20.224Z,19.30
2019-03-01T13:05:50.090Z,18.53
2019-03-01T13:08:19.500Z,16.33
2019-03-01T13:10:48.890Z,17.13
2019-03-01T13:13:18.339Z,16.13
2019-03-01T13:15:49.614Z,15.03
2019-03-01T13:18:19.120Z,16.47
2019-03-01T13:20:48.597Z,16.63
2019-03-01T13:23:18.027Z,16.87
2019-03-01T13:25:47.403Z,17.70
2019-03-01T13:28:16.889Z,16.80
2019-03-01T13:30:46.638Z,16.90
2019-03-01T13:33:16.014Z,16.50
2019-03-01T13:35:45.602Z,16.53
2019-03-01T13:38:15.051Z,18.67
2019-03-01T13:40:44.431Z,19.70
2019-03-01T13:43:14.190Z,17.90
2019-03-01T13:45:43.733Z,17.73
2019-03-01T13:48:18.946Z,17.93
2019-03-01T13:50:49.204Z,18.83
2019-03-01T13:53:18.816Z,19.10
2019-03-01T13:55:48.288Z,19.67
2019-03-01T13:58:17.859Z,19.77
2019-03-01T14:00:48.823Z,18.03
2019-03-01T14:03:20.814Z,15.73
2019-03-01T14:05:51.163Z,17.10
2019-03-01T14:08:23.977Z,17.00
2019-03-01T14:10:53.369Z,18.27
2019-03-01T14:13:22.887Z,16.97
2019-03-01T14:15:52.673Z,17.13
2019-03-01T14:18:22.106Z,18.23
2019-03-01T14:20:54.464Z,17.10
2019-03-01T14:23:25.964Z,15.87
2019-03-01T14:25:55.570Z,16.17
2019-03-01T14:28:25.010Z,17.57
2019-03-01T14:30:54.813Z,17.73
2019-03-01T14:33:24.336Z,17.17
2019-03-01T14:35:53.901Z,16.90
2019-03-01T14:38:23.421Z,16.97
2019-03-01T14:40:56.175Z,17.50
2019-03-01T14:43:27.518Z,17.27
2019-03-01T14:45:57.264Z,17.43
2019-03-01T14:48:26.891Z,17.83
2019-03-01T14:50:56.788Z,18.90
2019-03-01T14:53:26.762Z,18.50
2019-03-01T14:56:10.154Z,18.77
2019-03-01T14:58:42.266Z,19.67
2019-03-01T15:01:26.776Z,19.93
2019-03-01T15:03:54.853Z,19.90
2019-03-01T15:06:24.338Z,19.27
2019-03-01T15:08:56.952Z,18.80
2019-03-01T15:11:26.691Z,18.60
2019-03-01T15:13:56.646Z,17.70
2019-03-01T15:16:26.198Z,18.17
2019-03-01T15:18:55.662Z,15.63
2019-03-01T15:21:25.285Z,15.90
2019-03-01T15:23:56.171Z,16.57
2019-03-01T15:26:27.947Z,17.93
2019-03-01T15:28:58.906Z,17.27
2019-03-01T15:31:28.518Z,15.77
2019-03-01T15:33:58.205Z,16.40
2019-03-01T15:36:27.688Z,17.23
2019-03-01T15:38:57.306Z,14.53
2019-03-01T15:41:28.399Z,13.80
2019-03-01T15:43:58.229Z,14.43
2019-03-01T15:46:27.776Z,13.47
2019-03-01T15:48:57.333Z,12.03
2019-03-01T15:51:26.762Z,10.80
2019-03-01T15:53:57.644Z,10.60
2019-03-01T15:56:27.253Z,9.30
2019-03-01T15:58:56.794Z,9.10
2019-03-01T16:01:26.253Z,7.73
2019-03-01T16:03:57.189Z,7.80
2019-03-01T16:06:26.834Z,7.00
2019-03-01T16:08:56.409Z,6.47
2019-03-01T16:11:25.969Z,5.97
2019-03-01T16:13:55.564Z,5.37
2019-03-01T16:16:25.015Z,6.10
2019-03-01T16:18:54.502Z,4.90
2019-03-01T16:21:23.907Z,6.03
2019-03-01T16:23:53.408Z,5.80
2019-03-01T16:26:29.598Z,4.33
2019-03-01T16:28:53.959Z,5.30
2019-03-01T16:31:23.391Z,3.23
2019-03-01T16:33:52.975Z,4.20
2019-03-01T16:36:26.464Z,3.43
2019-03-01T16:38:55.488Z,3.20
2019-03-01T16:41:27.709Z,3.40
2019-03-01T16:43:57.138Z,3.27
2019-03-01T16:46:28.545Z,2.97
2019-03-01T16:48:58.710Z,2.53
2019-03-01T16:51:28.193Z,3.10
2019-03-01T16:53:57.605Z,4.30
2019-03-01T16:56:27.011Z,2.60
2019-03-01T16:58:56.511Z,2.70
2019-03-01T17:01:29.544Z,3.80
2019-03-01T17:03:57.338Z,3.53
2019-03-01T17:06:29.048Z,2.40
2019-03-01T17:08:58.468Z,3.60
2019-03-01T17:11:27.828Z,4.30
2019-03-01T17:13:59.551Z,5.67
2019-03-01T17:16:28.374Z,14.50
2019-03-01T17:19:00.759Z,7.63
2019-03-01T17:21:30.286Z,5.17
2019-03-01T17:23:59.699Z,4.57
2019-03-01T17:26:29.946Z,3.33
2019-03-01T17:29:02.980Z,2.73
2019-03-01T17:31:31.413Z,2.40
2019-03-01T17:34:00.919Z,2.20
2019-03-01T17:36:30.310Z,2.20
2019-03-01T17:38:59.830Z,2.33
2019-03-01T17:41:31.349Z,2.53
2019-03-01T17:44:08.631Z,2.37
2019-03-01T17:46:42.413Z,2.33
2019-03-01T17:49:12.051Z,2.50
2019-03-01T17:51:43.857Z,2.40
2019-03-01T17:54:13.250Z,2.20
2019-03-01T17:56:42.673Z,2.20
2019-03-01T17:59:12.993Z,2.70
2019-03-01T18:01:42.847Z,2.97
2019-03-01T18:04:13.831Z,3.00
2019-03-01T18:06:43.259Z,3.03
2019-03-01T18:09:13.283Z,3.60
2019-03-01T18:11:44.662Z,3.17
2019-03-01T18:14:14.946Z,3.50
2019-03-01T18:16:44.297Z,3.10
2019-03-01T18:19:13.624Z,3.63
2019-03-01T18:21:46.333Z,2.73
2019-03-01T18:24:15.206Z,2.97
2019-03-01T18:26:44.776Z,3.00
2019-03-01T18:29:14.192Z,3.17
2019-03-01T18:31:43.549Z,4.03
2019-03-01T18:34:12.954Z,3.60
2019-03-01T18:36:42.436Z,4.40
2019-03-01T18:39:13.572Z,4.60
2019-03-01T18:41:43.016Z,4.40
2019-03-01T18:44:12.381Z,4.87
2019-03-01T18:46:42.078Z,4.73
2019-03-01T18:49:11.492Z,4.73
2019-03-01T18:51:43.259Z,5.27
2019-03-01T18:54:12.174Z,5.50
2019-03-01T18:56:41.531Z,6.37
2019-03-01T18:59:10.960Z,6.10
2019-03-01T19:01:42.926Z,7.10
2019-03-01T19:04:12.995Z,6.70
2019-03-01T19:06:42.594Z,6.77
2019-03-01T19:09:12.667Z,7.20
2019-03-01T19:11:43.444Z,7.33
2019-03-01T19:14:12.788Z,7.47
2019-03-01T19:16:42.162Z,8.10
2019-03-01T19:19:11.617Z,7.20
2019-03-01T19:21:41.042Z,8.67
2019-03-01T19:24:10.386Z,9.30
2019-03-01T19:26:39.778Z,10.43
2019-03-01T19:29:09.238Z,9.40
2019-03-01T19:31:38.998Z,9.83
2019-03-01T19:34:09.490Z,11.00
2019-03-01T19:36:39.554Z,10.40
2019-03-01T19:39:15.612Z,9.97
2019-03-01T19:41:45.044Z,10.13
2019-03-01T19:44:15.080Z,11.50
2019-03-01T19:46:47.547Z,10.10
2019-03-01T19:49:15.639Z,9.37
2019-03-01T19:51:45.051Z,9.70
2019-03-01T19:54:15.424Z,9.93
2019-03-01T19:56:44.839Z,10.13
2019-03-01T19:59:14.273Z,10.30
2019-03-01T20:01:43.671Z,10.37
2019-03-01T20:04:13.318Z,11.30
2019-03-01T20:06:43.447Z,11.87
2019-03-01T20:09:13.900Z,13.53
2019-03-01T20:11:43.307Z,12.70
2019-03-01T20:14:12.722Z,13.73
2019-03-01T20:16:42.538Z,13.83
2019-03-01T20:19:12.145Z,12.77
2019-03-01T20:21:44.145Z,12.90
2019-03-01T20:24:12.606Z,12.33
2019-03-01T20:26:41.976Z,11.07
2019-03-01T20:29:11.620Z,11.67
2019-03-01T20:31:41.555Z,11.03
2019-03-01T20:34:11.020Z,10.73
2019-03-01T20:36:41.791Z,9.97
2019-03-01T20:39:15.619Z,9.27
2019-03-01T20:41:46.369Z,9.73
2019-03-01T20:44:18.728Z,11.37
2019-03-01T20:46:46.028Z,11.83
2019-03-01T20:49:15.498Z,11.63
2019-03-01T20:51:46.573Z,13.90
2019-03-01T20:54:16.095Z,13.90
2019-03-01T20:56:47.982Z,14.03
2019-03-01T20:59:16.573Z,12.50
2019-03-01T21:01:45.967Z,13.50
2019-03-01T21:04:15.375Z,14.97
2019-03-01T21:06:44.755Z,13.27
2019-03-01T21:09:14.100Z,11.77
2019-03-01T21:11:43.885Z,10.47
2019-03-01T21:14:13.297Z,11.37
2019-03-01T21:16:44.779Z,11.63
2019-03-01T21:19:13.733Z,13.00
2019-03-01T21:21:43.185Z,13.80
2019-03-01T21:24:12.619Z,12.30
2019-03-01T21:26:41.969Z,12.30
2019-03-01T21:29:12.485Z,12.00
2019-03-01T21:31:42.389Z,12.50
2019-03-01T21:34:11.737Z,13.60
2019-03-01T21:36:41.150Z,12.07
2019-03-01T21:39:12.071Z,11.73
2019-03-01T21:41:44.535Z,11.43
2019-03-01T21:44:13.649Z,10.70
2019-03-01T21:46:43.493Z,11.17
2019-03-01T21:49:12.860Z,10.27
2019-03-01T21:51:42.227Z,11.50
2019-03-01T21:54:12.652Z,10.60
2019-03-01T21:56:55.589Z,10.93
2019-03-01T21:59:17.284Z,10.20
2019-03-01T22:01:45.536Z,11.17
2019-03-01T22:04:15.926Z,11.87
2019-03-01T22:06:46.258Z,11.23
2019-03-01T22:09:17.184Z,12.03
2019-03-01T22:11:49.172Z,11.47
2019-03-01T22:14:17.691Z,12.87
2019-03-01T22:16:47.413Z,13.37
2019-03-01T22:19:16.788Z,13.43
2019-03-01T22:21:46.431Z,12.93
2019-03-01T22:24:15.851Z,13.83
2019-03-01T22:26:46.644Z,13.30
2019-03-01T22:29:16.558Z,13.23
2019-03-01T22:31:46.478Z,14.10
2019-03-01T22:34:15.822Z,14.47
2019-03-01T22:36:45.185Z,13.73
2019-03-01T22:39:16.678Z,14.97
2019-03-01T22:41:45.812Z,15.67
2019-03-01T22:44:15.196Z,15.20
2019-03-01T22:46:44.566Z,14.90
2019-03-01T22:49:13.935Z,14.73
2019-03-01T22:51:43.403Z,15.30
2019-03-01T22:54:14.689Z,14.93
2019-03-01T22:56:48.480Z,14.77
2019-03-01T22:59:15.876Z,15.23
2019-03-01T23:01:45.505Z,15.93
2019-03-01T23:04:14.932Z,14.57
2019-03-01T23:06:47.632Z,16.77
2019-03-01T23:09:15.773Z,16.53
2019-03-01T23:11:45.420Z,15.73
2019-03-01T23:14:15.255Z,16.67
2019-03-01T23:16:44.667Z,16.70
2019-03-01T23:19:16.225Z,17.53
2019-03-01T23:21:45.100Z,16.77
2019-03-01T23:24:14.431Z,17.70
2019-03-01T23:26:43.786Z,18.27
2019-03-01T23:29:15.617Z,18.33
2019-03-01T23:31:44.678Z,18.20
2019-03-01T23:34:14.356Z,18.93
2019-03-01T23:36:43.805Z,18.77
2019-03-01T23:39:13.159Z,19.30
2019-03-01T23:41:46.385Z,17.67
2019-03-01T23:44:15.212Z,19.40
2019-03-01T23:46:44.639Z,19.17
2019-03-01T23:49:15.411Z,20.00
2019-03-01T23:51:46.277Z,19.13
2019-03-01T23:54:15.776Z,20.17
2019-03-01T23:56:45.118Z,20.60
2019-03-01T23:59:14.499Z,20.37
